CheckWX is a tool to help pilots better visualize weather data.  It is not intended as a substitute for an official pre-flight weather briefing.

19:15:35 UTC

PANC METAR
Ted Stevens Anchorage International Airport
Anchorage, Alaska, USA
Current

23 mins ago

PANC 201853Z 31003KT 3SM FU FEW000 SCT050 SCT070 BKN200 16/07 A2980 RMK AO2 SLP091 FU FEW000 T01610067
Observed
Aug-20 @ 18:53 UTC
Wind
  • 310° at 3 KTS
Visibility
3 SM
Flight Rules
MVFR
Conditions
Smoke
Cloud Levels
  • Few
  • Scattered at 5,000' AGL
  • Scattered at 7,000' AGL
  • Broken at 20,000' AGL
Temperature
16°C / 61°F
Dewpoint
C / 45°F
Humidity
55%
Altimeter
29.8" Hg
Pressure
1009.12 hPa
Previous

42 mins ago

PANC 201834Z 31004KT 3SM FU FEW000 FEW080 BKN200 16/07 A2980 RMK AO2 FU FEW000 T01560067
Observed
Aug-20 @ 18:34 UTC
Wind
  • 310° at 4 KTS
Visibility
3 SM
Flight Rules
MVFR
Conditions
Smoke
Cloud Levels
  • Few
  • Few at 8,000' AGL
  • Broken at 20,000' AGL
Temperature
16°C / 61°F
Dewpoint
C / 45°F
Humidity
55%
Altimeter
29.8" Hg
Pressure
1009.12 hPa
Previous

1 hour ago

PANC 201753Z 00000KT 2 1/2SM FU FEW000 FEW070 BKN200 14/05 A2981 RMK AO2 SLP094 FU FEW000 T01440050 10144 20094 58004
Observed
Aug-20 @ 17:53 UTC
Visibility
2 1/2 SM
Flight Rules
IFR
Conditions
Smoke
Cloud Levels
  • Few
  • Few at 7,000' AGL
  • Broken at 20,000' AGL
Temperature
14°C / 57°F
Dewpoint
C / 41°F
Humidity
55%
Altimeter
29.81" Hg
Pressure
1009.52 hPa